Time;durP1;ratioP1;P1;durP2;ratioP2;P2;SDS_P1;SDS_P2;PMS_P1;PMS_P2;Temp;Humidity;BMP_temperature;BMP_pressure;BME280_temperature;BME280_humidity;BME280_pressure;Samples;Min_cycle;Max_cycle;Signal;HPM_P1;HPM_P2
2022/07/26 00:02:21;;;;;;;7.25;2.00;;;22.30;63.80;;;;;;5013848;28;20442;-68
2022/07/26 00:04:47;;;;;;;10.85;2.75;;;22.30;64.40;;;;;;5013482;28;20033;-67
2022/07/26 00:07:12;;;;;;;8.32;2.25;;;22.20;63.80;;;;;;5012719;28;20045;-66
2022/07/26 00:09:38;;;;;;;10.68;2.45;;;22.20;63.80;;;;;;5013701;28;20036;-66
2022/07/26 00:12:04;;;;;;;8.05;2.33;;;22.20;63.80;;;;;;5013673;28;20065;-66
2022/07/26 00:14:30;;;;;;;7.90;1.70;;;22.30;63.90;;;;;;5013125;28;20037;-66
2022/07/26 00:16:55;;;;;;;9.10;2.05;;;22.20;64.50;;;;;;5006543;28;20076;-66
2022/07/26 00:19:21;;;;;;;7.57;1.92;;;22.20;63.80;;;;;;5012663;28;20340;-67
2022/07/26 00:21:47;;;;;;;7.03;1.77;;;22.30;63.80;;;;;;5013544;28;20026;-67
2022/07/26 00:24:13;;;;;;;7.43;1.88;;;22.30;63.90;;;;;;5012910;28;20033;-67
2022/07/26 00:26:38;;;;;;;7.88;2.00;;;22.20;63.80;;;;;;5002814;28;20029;-67
2022/07/26 00:29:04;;;;;;;8.57;2.03;;;22.20;63.90;;;;;;5014175;28;20061;-67
2022/07/26 00:31:30;;;;;;;8.63;2.22;;;22.20;63.90;;;;;;5014077;28;20417;-67
2022/07/26 00:33:56;;;;;;;7.15;1.73;;;22.20;64.00;;;;;;5013737;28;20030;-67
2022/07/26 00:36:22;;;;;;;8.70;2.38;;;22.20;64.00;;;;;;5010949;28;20049;-67
2022/07/26 00:38:47;;;;;;;6.93;1.88;;;22.20;64.10;;;;;;5011986;28;20052;-67
2022/07/26 00:41:13;;;;;;;7.85;2.28;;;22.20;64.10;;;;;;5021284;28;20061;-67
2022/07/26 00:43:56;;;;;;;8.48;2.05;;;22.20;64.10;;;;;;5028603;28;20033;-66
2022/07/26 00:46:22;;;;;;;11.13;2.92;;;22.20;64.20;;;;;;5012465;28;20041;-66
2022/07/26 00:48:47;;;;;;;6.35;2.20;;;22.20;64.20;;;;;;5012390;28;20034;-66
2022/07/26 00:51:13;;;;;;;6.95;2.03;;;22.20;64.20;;;;;;5013547;28;20395;-67
2022/07/26 00:53:39;;;;;;;7.18;2.00;;;22.20;64.30;;;;;;5013185;28;20065;-66
2022/07/26 00:56:05;;;;;;;8.68;2.30;;;22.10;64.30;;;;;;5027834;28;20049;-67
2022/07/26 00:58:30;;;;;;;6.22;1.92;;;22.10;64.40;;;;;;5013121;28;20087;-66
2022/07/26 01:00:56;;;;;;;8.73;2.03;;;22.10;64.40;;;;;;5012814;28;20033;-66
2022/07/26 01:03:21;;;;;;;8.13;1.88;;;22.10;64.30;;;;;;5013400;28;20436;-66
2022/07/26 01:05:47;;;;;;;8.75;1.88;;;22.10;64.40;;;;;;5012841;28;20025;-67
2022/07/26 01:08:13;;;;;;;7.75;2.10;;;22.10;64.40;;;;;;5010820;28;20033;-67
2022/07/26 01:10:39;;;;;;;6.90;2.00;;;22.00;64.40;;;;;;5009676;28;20030;-67
2022/07/26 01:13:04;;;;;;;6.95;2.20;;;22.00;64.40;;;;;;5013825;28;20026;-66
2022/07/26 01:15:30;;;;;;;5.82;2.00;;;22.00;64.40;;;;;;5012383;28;20478;-66
2022/07/26 01:17:55;;;;;;;5.03;1.95;;;22.00;64.50;;;;;;5015632;28;20026;-67
2022/07/26 01:20:21;;;;;;;6.60;1.90;;;22.00;64.60;;;;;;5017114;28;20034;-67
2022/07/26 01:22:47;;;;;;;6.20;1.63;;;22.00;64.60;;;;;;5015841;28;20105;-66
2022/07/26 01:25:13;;;;;;;5.95;1.98;;;22.00;64.70;;;;;;5016877;28;20053;-67
2022/07/26 01:27:39;;;;;;;8.30;2.83;;;22.00;64.70;;;;;;5015350;28;20405;-66
2022/07/26 01:30:07;;;;;;;8.35;2.42;;;22.00;64.70;;;;;;5017553;28;20030;-66
2022/07/26 01:32:33;;;;;;;8.30;2.42;;;22.00;64.80;;;;;;5015913;28;20034;-66
2022/07/26 01:34:59;;;;;;;8.73;2.30;;;21.90;64.70;;;;;;5016216;28;20029;-67
2022/07/26 01:37:24;;;;;;;7.72;2.17;;;21.90;64.80;;;;;;5015500;28;20022;-67
2022/07/26 01:39:50;;;;;;;6.20;1.92;;;21.90;64.80;;;;;;5015857;28;20465;-67
2022/07/26 01:42:15;;;;;;;8.15;2.28;;;21.90;64.90;;;;;;5012582;28;20098;-67
2022/07/26 01:44:41;;;;;;;7.28;1.95;;;21.90;65.00;;;;;;5014006;28;20030;-67
2022/07/26 01:47:07;;;;;;;6.35;1.75;;;21.80;65.00;;;;;;5015494;28;20348;-66
2022/07/26 01:49:32;;;;;;;8.27;2.78;;;21.80;65.10;;;;;;5016231;28;20120;-66
2022/07/26 01:51:58;;;;;;;6.68;2.03;;;21.80;65.10;;;;;;5016604;28;20344;-66
2022/07/26 01:54:24;;;;;;;8.70;2.38;;;21.80;65.20;;;;;;5015502;28;20032;-67
2022/07/26 01:56:49;;;;;;;7.15;2.10;;;21.80;65.30;;;;;;5015233;28;20160;-66
2022/07/26 01:59:15;;;;;;;7.30;2.05;;;21.70;65.30;;;;;;5013486;28;20084;-66
2022/07/26 02:01:40;;;;;;;5.93;2.00;;;21.70;65.40;;;;;;5029067;28;20028;-66
2022/07/26 02:04:57;;;;;;;11.05;2.67;;;21.70;65.40;;;;;;5015844;28;20354;-66
2022/07/26 02:06:53;;;;;;;8.75;2.30;;;21.70;65.50;;;;;;5010329;28;20041;-66
2022/07/26 02:09:18;;;;;;;7.22;2.00;;;21.70;65.60;;;;;;5015954;28;20041;-67
2022/07/26 02:11:47;;;;;;;7.88;2.05;;;21.70;65.60;;;;;;5016019;28;20029;-66
2022/07/26 02:14:13;;;;;;;10.52;2.40;;;21.70;65.70;;;;;;5012966;28;20478;-66
2022/07/26 02:16:38;;;;;;;7.75;2.42;;;21.70;65.80;;;;;;5012391;28;20058;-67
2022/07/26 02:19:04;;;;;;;7.13;2.22;;;21.70;65.90;;;;;;5014079;28;20030;-67
2022/07/26 02:21:29;;;;;;;8.90;2.17;;;21.60;65.90;;;;;;5015861;28;20080;-67
2022/07/26 02:23:55;;;;;;;7.93;2.17;;;21.60;66.00;;;;;;5014887;28;20068;-67
2022/07/26 02:26:21;;;;;;;10.80;2.08;;;21.60;66.20;;;;;;5014773;28;20367;-66
2022/07/26 02:28:46;;;;;;;7.13;2.28;;;21.60;66.30;;;;;;5015674;28;20061;-66
2022/07/26 02:31:12;;;;;;;7.45;2.30;;;21.60;66.40;;;;;;5014176;28;20418;-67
2022/07/26 02:33:37;;;;;;;6.45;2.15;;;21.60;66.50;;;;;;5015246;28;20037;-67
2022/07/26 02:36:03;;;;;;;8.77;2.20;;;21.60;66.70;;;;;;5016536;28;20022;-67
2022/07/26 02:38:29;;;;;;;6.82;2.22;;;21.60;66.70;;;;;;5014814;28;20455;-67
2022/07/26 02:40:54;;;;;;;7.90;2.47;;;21.60;66.80;;;;;;5012678;28;20026;-67
2022/07/26 02:43:20;;;;;;;9.65;2.60;;;21.60;66.90;;;;;;5014423;28;20109;-67
2022/07/26 02:45:46;;;;;;;9.23;2.22;;;21.60;67.10;;;;;;5015507;28;20417;-67
2022/07/26 02:48:11;;;;;;;8.68;2.03;;;21.60;67.90;;;;;;5027743;28;20029;-67
2022/07/26 02:50:37;;;;;;;6.80;2.60;;;21.50;67.30;;;;;;5018912;28;20037;-67
2022/07/26 02:53:03;;;;;;;7.85;2.63;;;21.50;67.50;;;;;;5027201;28;20030;-67
2022/07/26 02:55:30;;;;;;;8.80;2.78;;;21.50;67.70;;;;;;5024987;28;20040;-67
2022/07/26 02:57:55;;;;;;;9.35;2.47;;;21.50;67.90;;;;;;5016763;28;20398;-67
2022/07/26 03:00:24;;;;;;;6.65;2.28;;;21.50;68.10;;;;;;5014796;28;20036;-67
2022/07/26 03:02:50;;;;;;;8.55;2.60;;;21.50;68.30;;;;;;5014005;28;20444;-67
2022/07/26 03:05:16;;;;;;;8.35;2.67;;;21.50;68.40;;;;;;5013182;28;20048;-67
2022/07/26 03:07:41;;;;;;;7.68;2.22;;;21.40;68.60;;;;;;5015235;28;20419;-66
2022/07/26 03:10:07;;;;;;;7.78;2.65;;;21.50;69.40;;;;;;5015737;28;20113;-67
2022/07/26 03:12:33;;;;;;;7.13;2.35;;;21.50;68.90;;;;;;5014802;28;20048;-67
2022/07/26 03:14:59;;;;;;;7.80;2.40;;;21.50;68.90;;;;;;5013547;28;20041;-67
2022/07/26 03:17:24;;;;;;;7.10;2.28;;;21.50;69.00;;;;;;5027740;28;20026;-67
2022/07/26 03:19:50;;;;;;;7.68;2.45;;;21.50;69.10;;;;;;5025998;28;20406;-67
2022/07/26 03:22:16;;;;;;;6.88;2.45;;;21.50;69.20;;;;;;5020858;28;20474;-67
2022/07/26 03:24:41;;;;;;;10.13;2.55;;;21.40;69.30;;;;;;5024146;28;20522;-66
2022/07/26 03:27:07;;;;;;;8.70;2.97;;;21.40;69.40;;;;;;5016795;28;20033;-66
2022/07/26 03:29:33;;;;;;;5.88;2.22;;;21.40;69.50;;;;;;5029807;28;20028;-67
2022/07/26 03:31:58;;;;;;;7.22;2.88;;;21.40;69.60;;;;;;5025336;28;20099;-66
2022/07/26 03:34:24;;;;;;;7.22;2.25;;;21.40;69.80;;;;;;5021823;28;20042;-66
2022/07/26 03:36:50;;;;;;;6.80;2.60;;;21.40;69.90;;;;;;5019164;28;20029;-67
2022/07/26 03:39:15;;;;;;;7.60;2.20;;;21.40;70.00;;;;;;5027070;28;20349;-67
2022/07/26 03:41:41;;;;;;;7.65;2.60;;;21.40;70.00;;;;;;5019116;28;20116;-67
2022/07/26 03:44:07;;;;;;;6.85;2.40;;;21.40;70.10;;;;;;5015025;28;20030;-66
2022/07/26 03:46:32;;;;;;;6.75;2.42;;;21.40;70.20;;;;;;5018024;28;20025;-67
2022/07/26 03:48:58;;;;;;;7.38;2.47;;;21.40;70.20;;;;;;5018290;28;20401;-67
2022/07/26 03:51:24;;;;;;;8.35;2.60;;;21.40;70.30;;;;;;5010981;28;20022;-66
2022/07/26 03:53:50;;;;;;;4.90;2.20;;;21.40;70.40;;;;;;5006686;28;20462;-67
2022/07/26 03:56:27;;;;;;;7.15;2.50;;;21.40;70.50;;;;;;5012538;28;20087;-67
2022/07/26 03:58:54;;;;;;;6.63;2.45;;;21.40;70.60;;;;;;5013985;28;20041;-67
2022/07/26 04:01:20;;;;;;;8.23;2.63;;;21.40;70.70;;;;;;5013794;28;20489;-66
2022/07/26 04:03:45;;;;;;;8.80;3.03;;;21.30;70.80;;;;;;5013468;28;20034;-66
2022/07/26 04:06:11;;;;;;;9.40;2.97;;;21.30;70.90;;;;;;5013586;28;20120;-67
2022/07/26 04:08:37;;;;;;;8.65;2.60;;;21.30;71.10;;;;;;5014097;28;20034;-67
2022/07/26 04:11:03;;;;;;;10.57;2.80;;;21.30;71.20;;;;;;5011493;28;20034;-67
2022/07/26 04:13:28;;;;;;;7.82;2.67;;;21.30;71.30;;;;;;5011665;28;20033;-67
2022/07/26 04:15:54;;;;;;;6.72;2.95;;;21.20;71.30;;;;;;5012383;28;20045;-67
2022/07/26 04:18:20;;;;;;;7.97;2.60;;;21.20;71.40;;;;;;5011262;28;20038;-67
2022/07/26 04:20:45;;;;;;;9.30;3.05;;;21.20;71.50;;;;;;5012289;28;20108;-67
2022/07/26 04:23:11;;;;;;;9.65;3.30;;;21.20;71.60;;;;;;5013261;28;20042;-67
2022/07/26 04:25:37;;;;;;;9.57;3.10;;;21.20;71.60;;;;;;5011185;28;20104;-66
2022/07/26 04:28:03;;;;;;;12.13;2.80;;;21.20;71.70;;;;;;5010315;28;20087;-66
2022/07/26 04:30:28;;;;;;;7.45;3.03;;;21.20;71.80;;;;;;5013549;28;20030;-66
2022/07/26 04:32:54;;;;;;;6.47;2.65;;;21.20;71.80;;;;;;5014111;28;20088;-66
2022/07/26 04:35:20;;;;;;;8.23;2.95;;;21.20;71.80;;;;;;5013627;28;20030;-67
2022/07/26 04:37:46;;;;;;;10.25;3.08;;;21.20;71.80;;;;;;5024745;28;20045;-66
2022/07/26 04:40:19;;;;;;;6.18;2.63;;;21.20;71.90;;;;;;5012506;28;20524;-66
2022/07/26 04:42:45;;;;;;;9.15;3.15;;;21.20;71.90;;;;;;5013769;28;20026;-66
2022/07/26 04:45:12;;;;;;;11.05;3.08;;;21.20;71.90;;;;;;5014789;28;20030;-67
2022/07/26 04:47:42;;;;;;;7.28;2.78;;;21.20;71.80;;;;;;5013748;28;20353;-66
2022/07/26 04:50:09;;;;;;;9.20;3.35;;;21.20;71.80;;;;;;5015555;28;20029;-67
2022/07/26 04:52:34;;;;;;;6.38;2.47;;;21.20;71.80;;;;;;5027073;28;20108;-66
2022/07/26 04:55:00;;;;;;;8.60;2.63;;;21.20;71.80;;;;;;5029565;28;20121;-66
2022/07/26 04:57:25;;;;;;;8.07;2.40;;;21.20;71.80;;;;;;5025392;28;20168;-66
2022/07/26 04:59:51;;;;;;;7.90;2.50;;;21.20;71.80;;;;;;5024956;28;20447;-66
2022/07/26 05:02:17;;;;;;;8.98;3.10;;;21.20;71.70;;;;;;5025362;28;20025;-66
2022/07/26 05:04:43;;;;;;;7.70;2.72;;;21.20;71.70;;;;;;5037720;28;20029;-67
2022/07/26 05:07:09;;;;;;;8.73;2.90;;;21.30;71.70;;;;;;5024144;28;20033;-66
2022/07/26 05:09:35;;;;;;;7.50;3.15;;;21.20;71.60;;;;;;5025827;28;20332;-66
2022/07/26 05:12:01;;;;;;;9.20;3.15;;;21.30;71.60;;;;;;5021091;28;20036;-67
2022/07/26 05:14:26;;;;;;;7.25;2.70;;;21.30;71.60;;;;;;5034322;28;20053;-67
2022/07/26 05:16:52;;;;;;;8.02;3.08;;;21.40;71.50;;;;;;5021444;28;20018;-67
2022/07/26 05:19:18;;;;;;;7.68;2.60;;;21.40;71.30;;;;;;5031581;28;20485;-67
2022/07/26 05:21:43;;;;;;;6.93;2.45;;;21.50;71.10;;;;;;5015353;28;20026;-67
2022/07/26 05:24:09;;;;;;;7.82;2.88;;;21.60;71.00;;;;;;5017462;28;20047;-67
2022/07/26 05:26:34;;;;;;;8.05;3.10;;;21.60;70.70;;;;;;5017166;28;20107;-67
2022/07/26 05:29:00;;;;;;;11.23;3.05;;;21.70;70.60;;;;;;5015438;28;20044;-67
2022/07/26 05:31:26;;;;;;;8.30;2.70;;;21.70;70.40;;;;;;5016620;28;20038;-67
2022/07/26 05:33:51;;;;;;;8.75;2.53;;;21.70;70.30;;;;;;5015479;28;20430;-68
2022/07/26 05:36:18;;;;;;;7.93;2.40;;;21.80;70.30;;;;;;5016563;28;20072;-67
2022/07/26 05:38:43;;;;;;;6.88;2.20;;;21.70;70.20;;;;;;5015780;28;20109;-67
2022/07/26 05:41:09;;;;;;;8.32;2.70;;;21.80;70.30;;;;;;5016213;28;20105;-67
2022/07/26 05:43:35;;;;;;;7.85;2.78;;;21.80;70.20;;;;;;5016564;28;20465;-67
2022/07/26 05:46:00;;;;;;;9.00;3.17;;;21.80;70.20;;;;;;5015417;28;20129;-67
2022/07/26 05:48:26;;;;;;;7.60;2.80;;;21.80;70.10;;;;;;5015838;28;20084;-68
2022/07/26 05:50:51;;;;;;;6.32;2.83;;;21.80;70.00;;;;;;5021281;28;20037;-67
2022/07/26 05:53:17;;;;;;;9.85;2.97;;;21.90;69.90;;;;;;5016419;28;20026;-67
2022/07/26 05:55:43;;;;;;;7.05;2.30;;;22.00;69.70;;;;;;5015965;28;20052;-67
2022/07/26 05:58:08;;;;;;;8.63;2.70;;;22.10;69.50;;;;;;5014502;28;20045;-67
2022/07/26 06:00:34;;;;;;;7.55;2.38;;;22.10;69.30;;;;;;5016015;28;20018;-68
2022/07/26 06:03:20;;;;;;;9.88;2.95;;;22.10;69.10;;;;;;5015421;28;20455;-67
2022/07/26 06:05:45;;;;;;;5.57;2.08;;;22.20;68.90;;;;;;5017602;28;20038;-68
2022/07/26 06:08:11;;;;;;;6.13;2.28;;;22.20;68.50;;;;;;5014852;28;20022;-67
2022/07/26 06:10:37;;;;;;;5.68;1.80;;;22.30;68.50;;;;;;5015449;28;20408;-67
2022/07/26 06:13:02;;;;;;;7.88;2.20;;;22.40;68.20;;;;;;5015147;28;20030;-67
2022/07/26 06:15:28;;;;;;;7.97;2.47;;;22.40;68.00;;;;;;5015112;28;20133;-67
2022/07/26 06:17:53;;;;;;;5.55;1.80;;;22.40;68.00;;;;;;5015254;28;20036;-67
2022/07/26 06:20:19;;;;;;;6.00;1.92;;;22.40;68.00;;;;;;5012412;28;20022;-67
2022/07/26 06:22:45;;;;;;;5.38;1.83;;;22.30;67.90;;;;;;5014707;28;20438;-67
2022/07/26 06:25:10;;;;;;;6.25;2.05;;;22.30;68.00;;;;;;5013978;28;20030;-67
2022/07/26 06:27:36;;;;;;;5.68;1.80;;;22.30;68.00;;;;;;5014238;28;20108;-67
2022/07/26 06:30:03;;;;;;;6.28;1.98;;;22.30;67.90;;;;;;5015603;28;20065;-67
2022/07/26 06:32:28;;;;;;;5.40;1.88;;;22.30;67.80;;;;;;5014987;28;20022;-67
2022/07/26 06:34:54;;;;;;;7.07;2.20;;;22.30;67.60;;;;;;5015240;28;20038;-67
2022/07/26 06:37:19;;;;;;;5.13;1.73;;;22.20;67.50;;;;;;5016459;28;20022;-67
2022/07/26 06:39:45;;;;;;;7.85;1.80;;;22.20;67.50;;;;;;5015115;28;20034;-67
2022/07/26 06:42:11;;;;;;;4.05;1.60;;;22.20;67.40;;;;;;5016633;28;20056;-66
2022/07/26 06:44:38;;;;;;;4.63;1.63;;;22.10;67.40;;;;;;5015198;28;20105;-66
2022/07/26 06:47:04;;;;;;;4.72;1.73;;;22.10;67.30;;;;;;5015592;28;20030;-67
2022/07/26 06:49:29;;;;;;;4.85;1.33;;;22.10;67.20;;;;;;5015352;28;20108;-66
2022/07/26 06:51:56;;;;;;;5.15;1.60;;;22.10;67.30;;;;;;5034775;28;20033;-67
2022/07/26 06:54:23;;;;;;;6.65;1.95;;;22.10;67.20;;;;;;5035464;28;20044;-66
2022/07/26 06:56:48;;;;;;;4.15;1.48;;;22.10;67.20;;;;;;5035796;28;20025;-67
2022/07/26 06:59:14;;;;;;;4.43;1.42;;;22.20;67.20;;;;;;5035561;28;20025;-67
2022/07/26 07:01:40;;;;;;;7.43;2.17;;;22.20;67.00;;;;;;5035581;28;20033;-67
2022/07/26 07:04:05;;;;;;;7.70;2.00;;;22.20;66.90;;;;;;5035714;28;20029;-67
2022/07/26 07:06:31;;;;;;;5.60;1.85;;;22.10;66.80;;;;;;5035652;28;20360;-67
2022/07/26 07:08:57;;;;;;;4.55;1.77;;;22.10;66.90;;;;;;5029914;28;20018;-66
2022/07/26 07:11:22;;;;;;;4.25;1.80;;;22.10;67.00;;;;;;5026357;28;20083;-67
2022/07/26 07:13:48;;;;;;;6.20;1.65;;;22.10;67.30;;;;;;5033747;28;20021;-67
2022/07/26 07:16:14;;;;;;;3.55;1.65;;;22.10;67.60;;;;;;5034997;28;20091;-67
2022/07/26 07:18:40;;;;;;;6.18;2.03;;;22.10;68.00;;;;;;5035030;28;20469;-67
2022/07/26 07:21:06;;;;;;;7.53;1.83;;;22.00;68.50;;;;;;5035141;28;20022;-66
2022/07/26 07:23:32;;;;;;;9.02;2.55;;;21.80;69.20;;;;;;5028158;28;20057;-66
2022/07/26 07:25:58;;;;;;;4.30;1.50;;;21.70;69.80;;;;;;5034076;28;20100;-66
2022/07/26 07:28:24;;;;;;;4.57;1.50;;;21.60;70.40;;;;;;5032298;28;20112;-66
2022/07/26 07:30:49;;;;;;;4.95;1.67;;;21.50;70.90;;;;;;5013617;28;20109;-66
2022/07/26 07:33:16;;;;;;;2.33;1.20;;;21.40;71.30;;;;;;5013961;28;20049;-69
2022/07/26 07:35:42;;;;;;;5.60;1.67;;;21.40;71.60;;;;;;5014246;28;20088;-66
2022/07/26 07:38:08;;;;;;;3.97;1.30;;;21.30;71.80;;;;;;5014197;28;20026;-67
2022/07/26 07:40:33;;;;;;;5.10;1.83;;;21.30;72.20;;;;;;5012884;28;20031;-67
2022/07/26 07:42:59;;;;;;;5.45;1.45;;;21.30;72.50;;;;;;5019608;28;20030;-67
2022/07/26 07:45:25;;;;;;;4.32;1.60;;;21.10;72.90;;;;;;5013071;28;20108;-66
2022/07/26 07:47:50;;;;;;;3.80;1.50;;;21.10;73.20;;;;;;5014915;28;20025;-66
2022/07/26 07:50:16;;;;;;;6.88;1.40;;;21.10;73.40;;;;;;5020772;28;20099;-66
2022/07/26 07:52:41;;;;;;;6.07;1.70;;;21.10;73.50;;;;;;5034750;28;20033;-67
2022/07/26 07:55:07;;;;;;;4.63;1.55;;;21.20;73.70;;;;;;5018289;28;20030;-66
2022/07/26 07:57:34;;;;;;;5.35;1.70;;;21.20;73.80;;;;;;5025571;28;20029;-66
2022/07/26 08:00:00;;;;;;;4.93;1.40;;;21.20;73.80;;;;;;5018577;28;20350;-68
2022/07/26 08:02:26;;;;;;;4.22;1.50;;;21.20;73.70;;;;;;5014828;28;20033;-67
2022/07/26 08:04:52;;;;;;;5.55;1.90;;;21.20;73.80;;;;;;5013424;28;20117;-67
2022/07/26 08:07:18;;;;;;;5.38;1.83;;;21.20;73.80;;;;;;5014240;28;20038;-67
2022/07/26 08:09:44;;;;;;;5.57;1.92;;;21.10;74.00;;;;;;5028034;28;20030;-66
2022/07/26 08:12:10;;;;;;;5.43;1.50;;;21.00;74.20;;;;;;5014354;28;20058;-66
2022/07/26 08:14:36;;;;;;;3.08;1.42;;;21.10;74.40;;;;;;5014614;28;20122;-67
2022/07/26 08:17:01;;;;;;;2.25;1.00;;;21.00;74.20;;;;;;5014786;28;20416;-67
2022/07/26 08:19:27;;;;;;;2.95;1.10;;;21.10;74.10;;;;;;5013390;28;20101;-67
2022/07/26 08:21:52;;;;;;;3.17;1.25;;;21.10;74.10;;;;;;5016748;28;20079;-66
2022/07/26 08:24:18;;;;;;;5.45;1.30;;;21.10;73.90;;;;;;5018564;28;20045;-66
2022/07/26 08:26:44;;;;;;;4.50;1.17;;;21.00;73.90;;;;;;5015415;28;20439;-66
2022/07/26 08:29:09;;;;;;;3.55;1.33;;;21.00;74.00;;;;;;5017479;28;20042;-67
2022/07/26 08:31:35;;;;;;;2.28;1.13;;;21.00;74.00;;;;;;5018062;28;20083;-66
2022/07/26 08:34:01;;;;;;;4.80;1.08;;;21.00;74.00;;;;;;5017088;28;20030;-66
2022/07/26 08:36:27;;;;;;;2.40;0.80;;;21.00;74.00;;;;;;5018914;28;20029;-67
2022/07/26 08:38:52;;;;;;;2.55;1.00;;;21.10;73.80;;;;;;5016685;28;20030;-67
2022/07/26 08:41:18;;;;;;;3.90;1.00;;;21.10;73.80;;;;;;5017186;28;20351;-67
2022/07/26 08:43:45;;;;;;;3.33;1.02;;;21.10;73.80;;;;;;5017822;28;20096;-67
2022/07/26 08:46:10;;;;;;;1.50;0.70;;;21.10;73.90;;;;;;5020570;28;20045;-66
2022/07/26 08:48:36;;;;;;;3.33;0.82;;;21.10;73.70;;;;;;5005711;28;20033;-66
2022/07/26 08:51:08;;;;;;;2.20;1.08;;;21.20;73.60;;;;;;5034407;28;20025;-66
2022/07/26 08:53:36;;;;;;;3.35;0.90;;;21.20;73.60;;;;;;5031618;28;20041;-67
2022/07/26 08:56:03;;;;;;;3.70;1.15;;;21.30;73.70;;;;;;5019305;28;20088;-66
2022/07/26 08:58:35;;;;;;;3.78;1.13;;;21.40;73.50;;;;;;5020689;28;20037;-68
2022/07/26 09:01:04;;;;;;;3.08;1.00;;;21.50;73.50;;;;;;5015731;28;20038;-67
2022/07/26 09:03:30;;;;;;;2.38;1.02;;;21.60;73.10;;;;;;5032740;28;20021;-67
2022/07/26 09:05:59;;;;;;;2.47;0.90;;;21.70;73.00;;;;;;5037357;28;20026;-67
2022/07/26 09:08:28;;;;;;;3.05;1.00;;;21.80;73.00;;;;;;5029574;28;20038;-67
2022/07/26 09:10:55;;;;;;;2.38;0.80;;;21.80;72.90;;;;;;5031073;28;20029;-67
2022/07/26 09:13:22;;;;;;;1.90;0.73;;;21.90;72.80;;;;;;5015792;28;20037;-66
2022/07/26 09:16:06;;;;;;;3.00;0.80;;;21.90;72.80;;;;;;5034936;28;20049;-66
2022/07/26 09:18:32;;;;;;;3.97;1.08;;;21.90;72.70;;;;;;5016663;28;20037;-66
2022/07/26 09:20:58;;;;;;;1.90;0.90;;;21.90;72.40;;;;;;5021686;28;20026;-66
2022/07/26 09:23:23;;;;;;;2.70;0.95;;;21.90;72.00;;;;;;5023127;28;20296;-66
2022/07/26 09:25:49;;;;;;;1.95;0.60;;;21.90;72.00;;;;;;5018078;28;20026;-67
2022/07/26 09:28:27;;;;;;;2.42;0.77;;;22.00;71.90;;;;;;5026831;28;20071;-68
2022/07/26 09:30:58;;;;;;;2.03;0.75;;;22.10;71.70;;;;;;5030527;28;20041;-66
2022/07/26 09:33:24;;;;;;;;;;;22.20;71.50;;;;;;5018239;28;20030;-67
2022/07/26 09:36:16;;;;;;;2.38;0.95;;;22.30;71.20;;;;;;5016420;28;20302;-67
2022/07/26 09:38:56;;;;;;;4.00;1.10;;;22.30;70.70;;;;;;5010795;28;20192;-66
2022/07/26 09:41:32;;;;;;;5.05;0.90;;;22.30;70.80;;;;;;5017135;28;20026;-66
2022/07/26 09:44:03;;;;;;;1.92;0.73;;;22.30;70.90;;;;;;5016627;28;20398;-66
2022/07/26 09:46:30;;;;;;;1.95;0.50;;;22.20;70.90;;;;;;5016515;28;20443;-67
2022/07/26 09:48:59;;;;;;;4.25;0.77;;;22.20;70.70;;;;;;5016955;28;20088;-66
2022/07/26 09:51:44;;;;;;;2.80;0.55;;;22.10;70.80;;;;;;5031510;28;20026;-66
2022/07/26 09:54:16;;;;;;;2.75;0.73;;;22.10;70.50;;;;;;5029767;28;20113;-66
2022/07/26 09:56:52;;;;;;;2.92;0.60;;;22.00;70.50;;;;;;5024769;28;20470;-66
2022/07/26 09:59:19;;;;;;;2.83;0.65;;;22.00;70.40;;;;;;5036903;28;20087;-66
2022/07/26 10:01:46;;;;;;;1.30;0.60;;;22.10;70.00;;;;;;5036485;28;20108;-66
2022/07/26 10:04:13;;;;;;;2.88;1.10;;;22.10;69.50;;;;;;5036396;28;20063;-67
2022/07/26 10:06:40;;;;;;;4.32;1.13;;;22.10;69.40;;;;;;5036300;28;20082;-67
2022/07/26 10:09:06;;;;;;;4.45;1.08;;;22.10;69.50;;;;;;5030916;28;20109;-67
2022/07/26 10:11:48;;;;;;;3.50;1.00;;;22.10;69.30;;;;;;5027927;28;20048;-67
2022/07/26 10:14:46;;;;;;;2.13;0.82;;;22.10;69.30;;;;;;5036069;28;20095;-67
2022/07/26 10:17:27;;;;;;;3.75;1.15;;;22.20;69.10;;;;;;5033989;28;20034;-67
2022/07/26 10:20:00;;;;;;;4.13;0.93;;;22.20;68.30;;;;;;5036377;28;20040;-67
2022/07/26 10:22:32;;;;;;;1.92;0.63;;;22.30;68.90;;;;;;5018129;28;20033;-66
2022/07/26 10:25:18;;;;;;;4.07;1.10;;;22.40;67.80;;;;;;5014309;28;20034;-66
2022/07/26 10:27:46;;;;;;;2.35;0.82;;;22.50;67.50;;;;;;5005095;28;20034;-66
2022/07/26 10:30:18;;;;;;;2.50;1.00;;;22.40;67.70;;;;;;5015096;28;20457;-66
2022/07/26 10:32:49;;;;;;;2.22;0.77;;;22.40;68.30;;;;;;5015258;28;20041;-66
2022/07/26 10:35:39;;;;;;;5.75;0.95;;;22.20;68.50;;;;;;5015023;28;20539;-67
2022/07/26 10:38:20;;;;;;;3.25;0.82;;;22.00;68.80;;;;;;5016152;28;20072;-67
2022/07/26 10:41:05;;;;;;;3.90;0.75;;;21.90;69.20;;;;;;5012756;28;20949;-67
2022/07/26 10:43:31;;;;;;;2.60;1.00;;;21.70;69.60;;;;;;5014914;28;20493;-67
2022/07/26 10:46:15;;;;;;;2.03;0.77;;;21.60;70.10;;;;;;5016473;28;20037;-67
2022/07/26 10:49:05;;;;;;;3.05;0.82;;;21.50;70.40;;;;;;5009559;28;20117;-67
2022/07/26 10:51:34;;;;;;;2.78;0.98;;;21.60;70.40;;;;;;5025874;28;20116;-67
2022/07/26 10:54:01;;;;;;;2.85;0.80;;;21.60;70.60;;;;;;5006777;28;20030;-67
2022/07/26 10:56:28;;;;;;;3.08;0.93;;;21.70;70.80;;;;;;5010040;28;20026;-66
2022/07/26 10:58:54;;;;;;;2.97;0.70;;;21.70;70.50;;;;;;5013953;28;20049;-66
2022/07/26 11:01:20;;;;;;;2.92;0.90;;;21.90;70.70;;;;;;5013250;28;20030;-67
2022/07/26 11:03:46;;;;;;;2.70;0.82;;;22.00;70.50;;;;;;5012989;28;20084;-66
2022/07/26 11:06:13;;;;;;;1.90;0.85;;;22.30;70.20;;;;;;5018334;28;20105;-66
2022/07/26 11:08:42;;;;;;;3.05;0.88;;;22.40;69.60;;;;;;5017323;28;20022;-66
2022/07/26 11:11:30;;;;;;;3.70;1.00;;;22.60;69.50;;;;;;5053645;28;20404;-65
2022/07/26 11:14:07;;;;;;;4.75;1.05;;;22.70;69.50;;;;;;5057753;28;20052;-66
2022/07/26 11:16:41;;;;;;;3.70;1.17;;;23.10;69.10;;;;;;5060309;28;20167;-67
2022/07/26 11:19:17;;;;;;;3.60;1.27;;;23.30;68.60;;;;;;5042759;28;20431;-67
2022/07/26 11:21:45;;;;;;;5.05;1.23;;;23.50;68.10;;;;;;5041125;28;20049;-66
2022/07/26 11:24:11;;;;;;;4.63;0.93;;;23.50;68.00;;;;;;5035685;28;20463;-66
2022/07/26 11:26:46;;;;;;;4.18;1.17;;;23.50;67.80;;;;;;5033432;28;20083;-67
2022/07/26 11:29:12;;;;;;;6.43;1.38;;;23.50;67.80;;;;;;5010786;28;20454;-66
2022/07/26 11:31:43;;;;;;;2.90;0.90;;;23.50;67.50;;;;;;5043000;28;20457;-67
2022/07/26 11:34:35;;;;;;;1.95;0.77;;;23.50;67.50;;;;;;5040311;28;20044;-66
2022/07/26 11:37:03;;;;;;;4.70;1.15;;;23.50;67.40;;;;;;5044079;28;20044;-66
2022/07/26 11:39:32;;;;;;;4.50;1.40;;;23.40;67.60;;;;;;5034403;28;20114;-66
2022/07/26 11:42:09;;;;;;;5.40;1.00;;;23.40;67.70;;;;;;5047889;28;20140;-66
2022/07/26 11:44:35;;;;;;;1.95;0.85;;;23.60;67.10;;;;;;5044838;28;20031;-66
2022/07/26 11:47:14;;;;;;;3.10;1.05;;;23.80;66.70;;;;;;5066589;28;20469;-66
2022/07/26 11:49:40;;;;;;;3.20;0.90;;;24.00;66.10;;;;;;5047245;28;20348;-66
2022/07/26 11:52:06;;;;;;;3.28;1.10;;;24.00;65.90;;;;;;5051091;28;20021;-66
2022/07/26 11:54:49;;;;;;;5.72;1.45;;;23.90;65.60;;;;;;5051107;28;20112;-66
2022/07/26 11:57:17;;;;;;;6.30;1.40;;;23.70;65.70;;;;;;5040403;28;20029;-66
2022/07/26 11:59:44;;;;;;;3.88;0.95;;;23.40;66.00;;;;;;5047083;28;20370;-66
2022/07/26 12:02:11;;;;;;;4.10;1.20;;;23.10;66.10;;;;;;5050960;28;20025;-66
2022/07/26 12:04:39;;;;;;;3.13;1.27;;;23.00;66.20;;;;;;5042082;28;20163;-66
2022/07/26 12:07:12;;;;;;;3.25;1.27;;;22.90;66.10;;;;;;5049854;28;20029;-67
2022/07/26 12:09:46;;;;;;;5.45;1.23;;;22.90;66.00;;;;;;5050869;28;20049;-66
2022/07/26 12:12:26;;;;;;;3.55;1.10;;;22.90;65.80;;;;;;5050775;28;20033;-66
2022/07/26 12:15:06;;;;;;;4.40;1.20;;;23.00;64.20;;;;;;5050767;28;20025;-66
2022/07/26 12:17:32;;;;;;;2.90;0.90;;;23.00;64.20;;;;;;5051076;28;20331;-66
2022/07/26 12:20:12;;;;;;;3.33;1.00;;;23.10;64.10;;;;;;5039545;28;20029;-67
2022/07/26 12:22:37;;;;;;;4.47;1.23;;;23.10;64.20;;;;;;5036922;28;20068;-66
2022/07/26 12:25:03;;;;;;;3.05;0.95;;;23.30;64.10;;;;;;5037492;28;20038;-67
2022/07/26 12:27:31;;;;;;;6.85;1.40;;;23.40;64.00;;;;;;5029796;28;20443;-66
2022/07/26 12:30:00;;;;;;;4.00;0.95;;;23.50;63.90;;;;;;5025145;28;20030;-66
2022/07/26 12:32:37;;;;;;;4.20;1.20;;;23.50;64.20;;;;;;5026683;28;20060;-66
2022/07/26 12:35:12;;;;;;;6.97;1.13;;;23.50;63.70;;;;;;5030205;28;20026;-67
2022/07/26 12:37:44;;;;;;;3.92;0.93;;;23.50;63.20;;;;;;5013119;28;20040;-67
2022/07/26 12:40:14;;;;;;;1.98;0.80;;;23.50;63.10;;;;;;5030995;28;20515;-67
2022/07/26 12:42:55;;;;;;;4.38;1.00;;;23.60;63.10;;;;;;5032252;28;20045;-67
2022/07/26 12:45:24;;;;;;;3.85;0.98;;;23.70;62.30;;;;;;5036012;28;20402;-68
2022/07/26 12:47:52;;;;;;;5.40;1.00;;;23.70;62.30;;;;;;5026104;28;20042;-68
2022/07/26 12:50:20;;;;;;;2.75;1.10;;;23.80;62.30;;;;;;5021957;28;20128;-66